Time;durP1;ratioP1;P1;durP2;ratioP2;P2;SDS_P1;SDS_P2;PMS_P1;PMS_P2;Temp;Humidity;BMP_temperature;BMP_pressure;BME280_temperature;BME280_humidity;BME280_pressure;Samples;Min_cycle;Max_cycle;Signal;HPM_P1;HPM_P2
2022/04/19 00:02:08;;;;;;;9.00;5.50;;;;;;;5.76;84.92;98350.91;25119;1315;3026906;-70
2022/04/19 00:04:37;;;;;;;7.40;4.60;;;;;;;5.52;86.01;98347.77;25109;1316;3026671;-68
2022/04/19 00:07:09;;;;;;;5.70;4.60;;;;;;;5.95;85.23;98336.95;25154;1315;3026887;-65
2022/04/19 00:09:38;;;;;;;20.50;9.30;;;;;;;6.11;83.99;98338.95;25183;1316;3026658;-69
2022/04/19 00:12:27;;;;;;;16.50;9.30;;;;;;;5.80;84.75;98339.73;25103;1315;3068864;-71
2022/04/19 00:14:56;;;;;;;17.50;8.70;;;;;;;5.72;85.11;98343.52;25175;1313;3027065;-69
2022/04/19 00:17:45;;;;;;;7.60;5.30;;;;;;;5.51;86.13;98341.36;25197;1313;3053276;-71
2022/04/19 00:20:15;;;;;;;9.70;5.40;;;;;;;5.99;85.03;98325.59;25112;1313;3026371;-70
2022/04/19 00:23:05;;;;;;;6.80;4.80;;;;;;;5.99;84.07;98318.06;25122;1313;3053126;-67
2022/04/19 00:25:34;;;;;;;12.70;7.00;;;;;;;5.90;83.91;98319.88;25128;1313;3030066;-71
2022/04/19 00:28:04;;;;;;;9.70;5.70;;;;;;;5.54;85.15;98314.30;25108;1313;3026764;-66
2022/04/19 00:30:34;;;;;;;9.20;5.80;;;;;;;5.58;85.65;98304.52;25112;1313;3028114;-69
2022/04/19 00:33:05;;;;;;;11.70;5.80;;;;;;;5.95;84.74;98305.48;25136;1313;3029380;-69
2022/04/19 00:35:35;;;;;;;9.70;6.30;;;;;;;6.24;83.28;98308.46;25179;1316;3026472;-70
2022/04/19 00:38:07;;;;;;;23.70;6.50;;;;;;;6.11;82.94;98304.20;25151;1316;3026651;-71
2022/04/19 00:40:56;;;;;;;8.70;6.40;;;;;;;5.81;84.04;98302.95;25115;1313;3053048;-70
2022/04/19 00:43:26;;;;;;;11.40;5.80;;;;;;;5.62;84.79;98307.21;25172;1313;3026625;-69
2022/04/19 00:45:59;;;;;;;7.20;4.60;;;;;;;5.59;85.63;98303.05;25142;1313;3059479;-71
2022/04/19 00:48:28;;;;;;;7.70;4.40;;;;;;;6.38;83.46;98304.98;25130;1313;3026330;-71
2022/04/19 00:50:57;;;;;;;8.40;4.60;;;;;;;6.33;82.31;98312.05;25142;1316;3055243;-69
2022/04/19 00:53:27;;;;;;;7.10;4.30;;;;;;;6.20;82.50;98314.27;25134;1313;3026747;-68
2022/04/19 00:55:56;;;;;;;13.90;5.50;;;;;;;5.94;83.39;98305.70;25147;1313;3054160;-68
2022/04/19 00:58:25;;;;;;;6.20;3.80;;;;;;;5.80;83.98;98300.08;25138;1313;3026362;-68
2022/04/19 01:01:13;;;;;;;6.90;4.00;;;;;;;5.81;84.78;98293.44;25103;1313;3048907;-70
2022/04/19 01:03:44;;;;;;;7.70;4.00;;;;;;;6.19;83.28;98287.67;25160;1316;3028960;-70
2022/04/19 01:06:17;;;;;;;10.40;4.40;;;;;;;6.13;83.07;98282.86;25174;1313;3054550;-70
2022/04/19 01:08:48;;;;;;;6.20;4.60;;;;;;;5.90;83.93;98280.36;25106;1313;3026639;-72
2022/04/19 01:14:09;;;;;;;6.50;3.90;;;;;;;5.67;85.15;98295.66;25173;1313;3055599;-71
2022/04/19 01:16:40;;;;;;;6.70;3.90;;;;;;;6.00;84.37;98296.54;25188;1313;3027496;-68
2022/04/19 01:19:29;;;;;;;7.60;3.80;;;;;;;6.20;83.25;98280.52;25096;1313;3069955;-69
2022/04/19 01:22:01;;;;;;;5.90;4.10;;;;;;;6.15;82.81;98291.47;25140;1313;3029063;-67
2022/04/19 01:24:42;;;;;;;9.60;4.40;;;;;;;5.99;83.35;98301.59;25160;1313;3052669;-71
2022/04/19 01:27:13;;;;;;;6.10;3.80;;;;;;;5.83;84.04;98317.96;25175;1313;3028546;-69
2022/04/19 01:29:44;;;;;;;5.70;3.70;;;;;;;6.31;83.01;98317.92;25142;1313;3026488;-71
2022/04/19 01:32:13;;;;;;;6.00;4.20;;;;;;;6.53;81.98;98308.73;25099;1313;3026894;-67
2022/04/19 01:35:06;;;;;;;7.70;4.10;;;;;;;6.51;81.35;98295.29;25161;1313;3055608;-69
2022/04/19 01:37:37;;;;;;;7.70;4.30;;;;;;;6.21;82.32;98294.52;25166;1313;3026981;-67
2022/04/19 01:40:22;;;;;;;11.70;4.80;;;;;;;5.88;83.86;98303.61;25195;1313;3027628;-71
2022/04/19 01:43:04;;;;;;;6.90;4.40;;;;;;;5.85;84.56;98308.88;25152;1313;3051500;-70
2022/04/19 01:45:48;;;;;;;8.80;4.80;;;;;;;6.58;82.44;98297.48;25167;1313;3053272;-70
2022/04/19 01:48:23;;;;;;;18.70;8.90;;;;;;;6.60;81.53;98294.37;25196;1313;3054956;-70
2022/04/19 01:50:52;;;;;;;19.60;9.80;;;;;;;6.43;81.73;98311.79;25173;1313;3026231;-69
2022/04/19 01:53:21;;;;;;;23.80;12.20;;;;;;;6.23;82.28;98306.41;25189;1315;3051822;-67
2022/04/19 01:55:50;;;;;;;23.60;13.40;;;;;;;5.96;83.48;98300.76;25654;1313;3026467;-67
2022/04/19 01:58:43;;;;;;;19.90;11.60;;;;;;;5.80;94.76;98310.38;25871;1313;3056682;-67
2022/04/19 02:01:13;;;;;;;15.00;8.10;;;;;;;6.18;86.32;98317.83;25938;1313;3026416;-66
2022/04/19 02:03:54;;;;;;;12.80;7.60;;;;;;;6.17;84.55;98314.45;25219;1313;3055715;-68
2022/04/19 02:06:46;;;;;;;13.40;6.70;;;;;;;5.98;84.98;98318.36;25141;1313;3054068;-70
2022/04/19 02:09:17;;;;;;;10.10;4.70;;;;;;;5.82;85.66;98314.77;25154;1313;3026552;-72
2022/04/19 02:12:06;;;;;;;6.00;3.00;;;;;;;5.59;86.71;98323.23;25091;1313;3055639;-72
2022/04/19 02:14:55;;;;;;;6.50;3.60;;;;;;;6.10;85.47;98325.11;25160;1313;3052406;-69
2022/04/19 02:17:50;;;;;;;8.50;3.30;;;;;;;6.10;84.32;98322.29;25038;1316;3051408;-69
2022/04/19 02:20:19;;;;;;;5.50;3.00;;;;;;;5.91;85.00;98321.88;25122;1315;3057779;-68
2022/04/19 02:22:48;;;;;;;6.80;3.70;;;;;;;5.87;85.42;98313.06;25146;1313;3026604;-66
2022/04/19 02:25:37;;;;;;;5.50;2.80;;;;;;;5.75;86.21;98312.23;25114;1315;3056305;-69
2022/04/19 02:28:28;;;;;;;5.80;3.20;;;;;;;6.31;84.69;98303.85;25165;1316;3051738;-71
2022/04/19 02:31:17;;;;;;;5.00;2.90;;;;;;;6.70;82.38;98298.13;25114;1313;3071699;-70
2022/04/19 02:33:54;;;;;;;6.00;3.40;;;;;;;6.59;82.06;98304.54;25155;1313;3052580;-73
2022/04/19 02:36:39;;;;;;;4.70;3.00;;;;;;;6.31;82.68;98304.03;25128;1315;3054853;-71
2022/04/19 02:39:08;;;;;;;4.10;2.80;;;;;;;6.02;84.04;98312.04;25109;1315;3026417;-69
2022/04/19 02:41:39;;;;;;;4.60;2.90;;;;;;;6.07;84.11;98317.45;25207;1315;3028522;-69
2022/04/19 02:44:09;;;;;;;4.40;2.90;;;;;;;6.48;83.06;98330.80;25158;1316;3029000;-69
2022/04/19 02:46:58;;;;;;;7.20;3.50;;;;;;;6.73;81.88;98332.75;25135;1315;3052813;-66
2022/04/19 02:49:28;;;;;;;5.00;3.20;;;;;;;6.60;81.60;98319.42;25109;1315;3028459;-68
2022/04/19 02:51:58;;;;;;;7.90;3.80;;;;;;;6.17;83.21;98318.94;25036;1316;3026977;-72
2022/04/19 02:54:27;;;;;;;7.90;3.90;;;;;;;6.07;83.76;98331.02;25175;1316;3026950;-70
2022/04/19 02:57:07;;;;;;;7.40;3.40;;;;;;;5.85;85.00;98327.42;25137;1313;3051395;-70
2022/04/19 02:59:37;;;;;;;5.00;3.40;;;;;;;6.38;84.23;98319.25;25102;1316;3026723;-68
2022/04/19 03:02:08;;;;;;;8.10;3.60;;;;;;;6.71;82.31;98322.73;25158;1313;3026810;-72
2022/04/19 03:04:38;;;;;;;6.50;4.00;;;;;;;6.67;81.83;98314.48;25152;1313;3028614;-72
2022/04/19 03:07:09;;;;;;;11.40;4.70;;;;;;;6.48;82.43;98323.84;25182;1313;3026906;-67
2022/04/19 03:09:51;;;;;;;19.70;4.20;;;;;;;6.24;83.36;98332.09;25124;1315;3057250;-69
2022/04/19 03:12:21;;;;;;;6.70;3.90;;;;;;;6.12;84.00;98324.14;25155;1313;3026801;-72
2022/04/19 03:15:00;;;;;;;4.60;3.30;;;;;;;6.87;82.65;98315.69;25142;1313;3052268;-69
2022/04/19 03:17:29;;;;;;;8.80;3.90;;;;;;;7.10;80.65;98305.70;25128;1313;3026332;-68
2022/04/19 03:19:58;;;;;;;5.20;2.60;;;;;;;7.11;80.26;98300.88;25165;1313;3049039;-68
2022/04/19 03:27:41;;;;;;;8.00;4.10;;;;;;;6.85;80.79;98308.85;25112;1313;3028743;-68
2022/04/19 03:28:09;;;;;;;9.70;3.60;;;;;;;6.55;82.26;98317.50;25119;1313;3049722;-69
2022/04/19 03:30:39;;;;;;;10.60;5.50;;;;;;;7.14;81.20;98317.58;25181;1313;3026651;-70
2022/04/19 03:33:09;;;;;;;22.00;9.10;;;;;;;7.54;79.22;98311.67;25212;1313;3026629;-71
2022/04/19 03:35:38;;;;;;;19.10;10.00;;;;;;;7.30;79.05;98313.09;25129;1313;3027357;-67
2022/04/19 03:38:09;;;;;;;25.30;13.00;;;;;;;7.00;79.92;98314.98;25160;1312;3026357;-70
2022/04/19 03:40:39;;;;;;;27.40;14.90;;;;;;;6.77;81.01;98308.48;25160;1316;3027755;-70
2022/04/19 03:43:08;;;;;;;42.10;14.30;;;;;;;6.65;81.35;98312.70;25177;1313;3025914;-69
2022/04/19 03:45:58;;;;;;;21.60;10.00;;;;;;;6.53;82.03;98322.00;25133;1313;3056356;-69
2022/04/19 03:48:28;;;;;;;16.10;8.30;;;;;;;7.11;81.08;98316.89;25136;1313;3026444;-72
2022/04/19 03:51:00;;;;;;;21.70;9.00;;;;;;;7.41;79.12;98316.54;25138;1313;3026706;-68
2022/04/19 03:53:32;;;;;;;17.50;9.50;;;;;;;7.20;79.62;98325.59;25169;1313;3027815;-70
2022/04/19 03:56:05;;;;;;;12.00;5.60;;;;;;;7.18;79.97;98319.05;25121;1312;3051164;-69
2022/04/19 03:58:35;;;;;;;13.70;6.00;;;;;;;6.89;80.21;98319.70;25175;1313;3027290;-72
2022/04/19 04:01:05;;;;;;;7.30;4.30;;;;;;;6.60;81.23;98322.59;25133;1313;3026527;-68
2022/04/19 04:03:36;;;;;;;6.00;3.20;;;;;;;6.48;82.25;98327.17;25127;1313;3026848;-70
2022/04/19 04:06:06;;;;;;;4.70;2.90;;;;;;;6.98;81.32;98331.30;25143;1312;3027305;-70
2022/04/19 04:08:55;;;;;;;5.00;3.00;;;;;;;7.26;79.43;98323.94;25179;1313;3051159;-72
2022/04/19 04:11:24;;;;;;;6.40;3.80;;;;;;;7.04;79.80;98333.05;25122;1313;3028208;-69
2022/04/19 04:14:19;;;;;;;7.10;3.70;;;;;;;7.16;79.85;98340.27;25170;1313;3051743;-66
2022/04/19 04:16:49;;;;;;;11.10;3.90;;;;;;;6.84;80.35;98341.61;25174;1313;3026939;-73
2022/04/19 04:19:37;;;;;;;4.20;2.90;;;;;;;6.82;80.90;98343.50;25083;1313;3053473;-68
2022/04/19 04:22:06;;;;;;;6.90;3.70;;;;;;;7.24;79.80;98342.40;25110;1315;3028893;-68
2022/04/19 04:24:55;;;;;;;6.30;3.80;;;;;;;7.80;77.78;98344.65;25146;1315;3054139;-69
2022/04/19 04:27:26;;;;;;;7.40;3.60;;;;;;;7.80;77.74;98344.98;25096;1313;3026432;-71
2022/04/19 04:29:55;;;;;;;7.00;3.60;;;;;;;7.28;78.24;98354.46;25143;1316;3027242;-71
2022/04/19 04:32:46;;;;;;;8.20;3.50;;;;;;;6.89;79.96;98360.81;25079;1316;3054660;-70
2022/04/19 04:35:16;;;;;;;11.70;3.90;;;;;;;6.62;80.84;98363.70;25151;1313;3026456;-71
2022/04/19 04:37:45;;;;;;;6.20;2.80;;;;;;;6.47;82.13;98361.48;25099;1313;3026414;-73
2022/04/19 04:40:34;;;;;;;7.00;3.70;;;;;;;7.25;80.32;98363.02;25158;1315;3050864;-71
2022/04/19 04:43:10;;;;;;;9.80;3.90;;;;;;;7.40;78.67;98360.69;25135;1316;3055648;-73
2022/04/19 04:45:40;;;;;;;4.80;3.40;;;;;;;7.34;78.83;98354.96;25096;1315;3026601;-74
2022/04/19 04:50:59;;;;;;;6.60;3.70;;;;;;;6.96;79.78;98362.08;25181;1315;3053158;-74
2022/04/19 04:53:30;;;;;;;11.00;4.00;;;;;;;6.78;80.53;98362.19;25135;1316;3028662;-72
2022/04/19 04:56:23;;;;;;;5.70;3.20;;;;;;;6.66;81.59;98371.80;25130;1316;3068252;-72
2022/04/19 04:58:52;;;;;;;5.70;3.10;;;;;;;7.41;79.98;98363.77;25215;1313;3026762;-70
2022/04/19 05:01:42;;;;;;;8.60;3.30;;;;;;;7.67;77.83;98361.51;25141;1313;3054309;-71
2022/04/19 05:04:11;;;;;;;10.50;4.40;;;;;;;7.45;78.15;98367.86;25109;1313;3026961;-71
2022/04/19 05:06:41;;;;;;;8.90;4.40;;;;;;;7.46;78.75;98369.34;25175;1316;3027932;-69
2022/04/19 05:09:10;;;;;;;10.00;5.50;;;;;;;7.38;78.63;98375.80;25144;1313;3054391;-70
2022/04/19 05:11:40;;;;;;;12.60;5.20;;;;;;;7.26;78.75;98385.47;25131;1312;3027083;-70
2022/04/19 05:14:11;;;;;;;8.30;4.20;;;;;;;7.08;79.59;98379.27;25207;1313;3028978;-72
2022/04/19 05:16:59;;;;;;;9.70;5.90;;;;;;;7.69;78.49;98382.13;25136;1313;3052544;-71
2022/04/19 05:19:29;;;;;;;8.40;4.10;;;;;;;8.04;76.75;98385.58;25174;1313;3026351;-71
2022/04/19 05:22:18;;;;;;;9.10;3.70;;;;;;;7.79;77.02;98385.67;25115;1313;3051447;-73
2022/04/19 05:24:48;;;;;;;7.60;4.20;;;;;;;7.62;77.70;98400.39;25132;1313;3026634;-71
2022/04/19 05:27:17;;;;;;;13.40;5.00;;;;;;;7.19;78.93;98410.27;25186;1315;3026891;-70
2022/04/19 05:29:47;;;;;;;17.10;5.00;;;;;;;7.06;80.15;98407.08;25160;1313;3052950;-70
2022/04/19 05:32:17;;;;;;;10.00;4.40;;;;;;;7.08;80.25;98402.58;25159;1316;3026415;-74
2022/04/19 05:34:48;;;;;;;9.00;4.50;;;;;;;7.51;79.14;98396.21;25122;1316;3028960;-71
2022/04/19 05:37:17;;;;;;;11.10;4.80;;;;;;;8.01;77.50;98374.80;25166;1316;3052088;-73
2022/04/19 05:39:46;;;;;;;10.30;4.40;;;;;;;7.92;76.89;98363.71;25171;1313;3026946;-73
2022/04/19 05:42:15;;;;;;;11.90;5.00;;;;;;;7.69;77.68;98360.90;25220;1313;3026105;-73
2022/04/19 05:44:45;;;;;;;15.70;5.10;;;;;;;7.60;77.90;98364.92;25179;1313;3051010;-73
2022/04/19 05:47:15;;;;;;;15.10;4.50;;;;;;;7.63;77.78;98366.34;25172;1313;3028846;-72
2022/04/19 05:49:44;;;;;;;11.20;4.00;;;;;;;7.51;78.19;98367.63;25164;1313;3026620;-72
2022/04/19 05:52:14;;;;;;;9.20;3.50;;;;;;;7.85;78.10;98369.61;25159;1313;3026392;-71
2022/04/19 05:54:44;;;;;;;7.20;3.90;;;;;;;8.09;76.80;98369.92;25184;1316;3027093;-73
2022/04/19 05:57:14;;;;;;;9.80;4.70;;;;;;;8.12;76.50;98366.38;25166;1313;3028876;-72
2022/04/19 05:59:43;;;;;;;11.50;5.20;;;;;;;8.03;76.86;98363.48;25187;1313;3026319;-72
2022/04/19 06:05:00;;;;;;;18.10;4.30;;;;;;;7.54;78.52;98373.92;25136;1313;3057808;-71
2022/04/19 06:07:47;;;;;;;9.80;4.00;;;;;;;7.56;78.79;98390.64;25144;1313;3049602;-72
2022/04/19 06:10:22;;;;;;;10.30;4.10;;;;;;;7.96;77.93;98400.23;25198;1313;3055402;-72
2022/04/19 06:13:12;;;;;;;7.70;4.20;;;;;;;8.19;77.18;98397.63;25184;1313;3052414;-69
2022/04/19 06:15:42;;;;;;;13.50;5.40;;;;;;;8.31;77.20;98392.27;25158;1313;3027209;-70
2022/04/19 06:18:12;;;;;;;10.40;3.90;;;;;;;8.08;77.36;98385.30;25145;1316;3027431;-75
2022/04/19 06:20:53;;;;;;;16.50;4.60;;;;;;;7.89;78.01;98390.27;25234;1313;3054979;-73
2022/04/19 06:23:23;;;;;;;14.70;5.20;;;;;;;7.76;78.32;98402.10;25388;1314;3026973;-70
2022/04/19 06:25:57;;;;;;;7.90;3.90;;;;;;;7.69;79.22;98411.05;25948;1313;3055155;-71
2022/04/19 06:28:29;;;;;;;10.50;4.80;;;;;;;8.35;77.94;98399.40;25985;1316;3026181;-70
2022/04/19 06:31:16;;;;;;;11.60;5.00;;;;;;;8.86;75.84;98386.30;25638;1313;3052850;-73
2022/04/19 06:34:07;;;;;;;11.00;5.20;;;;;;;8.79;75.32;98388.31;25189;1314;3051418;-74
2022/04/19 06:36:51;;;;;;;17.90;5.10;;;;;;;8.55;75.81;98404.81;25182;1313;3067117;-73
2022/04/19 06:39:20;;;;;;;11.90;4.20;;;;;;;8.34;76.56;98414.08;25131;1313;3029714;-70
2022/04/19 06:41:56;;;;;;;31.00;5.60;;;;;;;8.22;77.05;98414.36;25146;1313;3051526;-70
2022/04/19 06:44:27;;;;;;;17.80;5.80;;;;;;;8.06;77.69;98417.34;25148;1313;3026549;-74
2022/04/19 06:47:04;;;;;;;8.00;3.90;;;;;;;8.08;78.24;98418.98;25176;1313;3047435;-74
2022/04/19 06:49:34;;;;;;;7.80;3.80;;;;;;;8.43;77.10;98411.73;25168;1314;3026426;-70
2022/04/19 06:52:06;;;;;;;9.40;4.20;;;;;;;8.81;75.80;98410.34;25206;1313;3026669;-71
2022/04/19 06:54:36;;;;;;;8.00;4.20;;;;;;;8.77;75.54;98413.61;25180;1316;3049425;-71
2022/04/19 06:57:26;;;;;;;13.40;3.60;;;;;;;8.49;76.50;98413.45;25118;1313;3053147;-74
2022/04/19 06:59:55;;;;;;;9.00;4.70;;;;;;;8.32;77.16;98412.16;25149;1316;3026592;-72
2022/04/19 07:02:24;;;;;;;18.10;6.90;;;;;;;8.22;77.82;98415.09;25145;1316;3026557;-73
2022/04/19 07:04:59;;;;;;;26.00;7.40;;;;;;;8.25;78.07;98418.20;25185;1313;3053325;-70
2022/04/19 07:07:32;;;;;;;12.20;6.80;;;;;;;7.96;78.62;98424.83;25212;1313;3026658;-71
2022/04/19 07:10:22;;;;;;;29.20;14.30;;;;;;;8.61;77.63;98419.04;25121;1313;3059092;-70
2022/04/19 07:12:56;;;;;;;35.30;17.40;;;;;;;8.91;75.76;98408.29;25123;1313;3052930;-71
2022/04/19 07:15:45;;;;;;;37.40;19.20;;;;;;;8.61;76.60;98396.55;25184;1316;3053153;-72
2022/04/19 07:18:17;;;;;;;42.80;21.20;;;;;;;8.45;77.30;98399.89;25133;1313;3027197;-74
2022/04/19 07:29:11;;;;;;;10.60;5.30;;;;;;;8.29;78.31;98354.07;25169;1312;3053825;-73
2022/04/19 07:31:42;;;;;;;8.30;4.60;;;;;;;8.38;77.60;98352.56;25185;1316;3026507;-72
2022/04/19 07:34:17;;;;;;;14.20;4.90;;;;;;;8.20;78.02;98360.25;25147;1313;3052176;-70
2022/04/19 07:37:12;;;;;;;14.00;5.10;;;;;;;8.00;79.01;98362.81;25157;1316;3026206;-74
2022/04/19 07:39:42;;;;;;;18.60;4.70;;;;;;;7.76;79.44;98346.27;25159;1313;3057311;-71
2022/04/19 07:42:11;;;;;;;6.20;3.20;;;;;;;7.44;80.30;98319.31;25167;1313;3026915;-69
2022/04/19 07:44:44;;;;;;;8.20;3.40;;;;;;;7.49;80.98;98317.27;25201;1313;3056021;-72
2022/04/19 07:47:14;;;;;;;7.90;3.20;;;;;;;7.34;81.58;98309.50;25137;1313;3026365;-72
2022/04/19 07:49:44;;;;;;;10.90;4.20;;;;;;;7.29;82.01;98304.60;25177;1313;3026494;-73
2022/04/19 07:52:13;;;;;;;9.50;3.70;;;;;;;7.13;82.58;98292.78;25183;1313;3026488;-70
2022/04/19 07:54:43;;;;;;;7.50;4.00;;;;;;;6.99;83.49;98292.11;25174;1313;3026739;-74
2022/04/19 07:57:12;;;;;;;5.70;2.90;;;;;;;7.02;84.29;98293.81;25181;1313;3049949;-73
2022/04/19 07:59:42;;;;;;;9.20;3.50;;;;;;;7.50;82.52;98286.33;25131;1312;3026624;-73
2022/04/19 08:02:11;;;;;;;7.40;4.00;;;;;;;7.58;81.89;98282.98;25197;1313;3027830;-71
2022/04/19 08:04:43;;;;;;;11.40;5.10;;;;;;;7.60;81.70;98297.13;25171;1313;3048908;-70
2022/04/19 08:07:12;;;;;;;10.30;4.20;;;;;;;7.42;82.46;98307.76;25159;1313;3026380;-70
2022/04/19 08:09:42;;;;;;;8.70;4.40;;;;;;;7.57;81.83;98314.43;25212;1313;3028984;-74
2022/04/19 08:12:12;;;;;;;11.00;4.20;;;;;;;7.82;81.85;98326.16;25149;1316;3027133;-76
2022/04/19 08:14:41;;;;;;;10.40;4.70;;;;;;;8.41;79.77;98336.86;25157;1313;3026640;-73
2022/04/19 08:17:13;;;;;;;9.80;4.70;;;;;;;8.73;78.22;98349.83;25185;1312;3051061;-75
2022/04/19 08:19:42;;;;;;;11.20;5.70;;;;;;;8.91;77.37;98360.29;25146;1313;3026550;-71
2022/04/19 08:22:16;;;;;;;11.20;5.30;;;;;;;8.98;77.55;98373.23;25177;1313;3026539;-72
2022/04/19 08:24:51;;;;;;;12.40;6.10;;;;;;;8.91;77.08;98376.32;25182;1313;3052815;-72
2022/04/19 08:27:20;;;;;;;17.30;6.80;;;;;;;8.78;77.09;98380.15;25125;1313;3026436;-74
2022/04/19 08:29:49;;;;;;;10.00;5.30;;;;;;;8.71;77.13;98392.25;25145;1313;3026574;-70
2022/04/19 08:32:18;;;;;;;12.50;5.30;;;;;;;9.11;76.35;98407.55;25193;1313;3026751;-72
2022/04/19 08:34:47;;;;;;;13.90;5.90;;;;;;;9.80;74.87;98408.64;25158;1312;3051943;-69
2022/04/19 08:37:19;;;;;;;13.90;6.50;;;;;;;9.89;73.96;98408.73;25230;1313;3028158;-74
2022/04/19 08:40:10;;;;;;;13.50;6.50;;;;;;;9.63;73.98;98416.09;25090;1316;3052278;-72
2022/04/19 08:42:40;;;;;;;15.70;7.10;;;;;;;9.49;74.87;98429.32;25226;1315;3029161;-70
2022/04/19 08:45:11;;;;;;;13.90;7.50;;;;;;;9.46;75.02;98434.27;25493;1313;3026368;-72
2022/04/19 08:47:44;;;;;;;17.90;8.10;;;;;;;9.38;75.22;98441.49;25132;1313;3027013;-74
2022/04/19 08:50:16;;;;;;;15.00;7.20;;;;;;;9.25;75.24;98437.82;25110;1313;3054277;-75
2022/04/19 08:52:46;;;;;;;12.50;7.50;;;;;;;9.74;74.54;98431.16;25154;1313;3026198;-71
2022/04/19 08:58:04;;;;;;;24.00;11.70;;;;;;;10.31;72.22;98437.23;25157;1316;3048969;-70
2022/04/19 09:00:33;;;;;;;33.00;17.70;;;;;;;10.21;72.55;98449.05;25147;1319;3026473;-74
2022/04/19 09:03:03;;;;;;;37.40;19.90;;;;;;;9.94;73.06;98460.63;25135;1314;3027076;-74
2022/04/19 09:05:52;;;;;;;43.80;22.20;;;;;;;9.76;73.61;98470.70;25210;1313;3059458;-73
2022/04/19 09:08:21;;;;;;;48.20;25.20;;;;;;;9.58;74.26;98469.17;25175;1313;3052940;-71
2022/04/19 09:10:51;;;;;;;43.90;19.90;;;;;;;9.41;74.73;98471.85;25183;1316;3026529;-69
2022/04/19 09:13:21;;;;;;;45.60;21.10;;;;;;;9.79;74.49;98474.70;25080;1318;3026532;-72
2022/04/19 09:15:52;;;;;;;31.40;16.10;;;;;;;10.13;73.15;98461.50;25145;1313;3027379;-72
2022/04/19 09:18:29;;;;;;;22.70;11.50;;;;;;;10.14;73.07;98457.73;25192;1313;3028393;-72
2022/04/19 09:20:59;;;;;;;26.70;12.70;;;;;;;10.12;73.13;98449.81;25160;1313;3054686;-73
2022/04/19 09:23:30;;;;;;;14.10;8.10;;;;;;;9.97;73.68;98458.35;25121;1313;3027265;-73
2022/04/19 09:26:19;;;;;;;10.90;6.50;;;;;;;9.89;73.83;98466.41;25179;1313;3056317;-72
2022/04/19 09:29:27;;;;;;;9.30;4.70;;;;;;;9.61;74.11;98472.01;25227;1316;3049674;-70
2022/04/19 09:31:58;;;;;;;8.60;4.80;;;;;;;9.53;74.60;98470.41;24875;1313;3445773;-74
2022/04/19 09:34:36;;;;;;;7.00;3.80;;;;;;;9.51;75.04;98474.98;25161;1313;3026495;-73
2022/04/19 09:37:10;;;;;;;8.30;4.00;;;;;;;10.08;73.77;98470.77;25132;1316;3068314;-74
2022/04/19 09:39:40;;;;;;;9.00;4.40;;;;;;;10.74;72.42;98466.86;25104;1313;3026737;-72
2022/04/19 09:42:12;;;;;;;14.20;6.30;;;;;;;10.72;71.21;98469.14;25209;1313;3027377;-72
2022/04/19 09:44:42;;;;;;;9.90;5.60;;;;;;;10.55;72.00;98479.77;25170;1315;3029150;-74
2022/04/19 09:47:12;;;;;;;10.80;5.90;;;;;;;10.31;72.14;98482.60;25186;1316;3027739;-71
2022/04/19 09:49:44;;;;;;;16.10;7.70;;;;;;;10.18;72.40;98481.45;25144;1315;3027426;-71
2022/04/19 09:52:22;;;;;;;17.40;7.30;;;;;;;9.80;73.56;98488.92;25153;1315;3028143;-73
2022/04/19 09:55:11;;;;;;;14.90;6.40;;;;;;;9.65;74.50;98487.02;25174;1316;3055169;-74
2022/04/19 09:57:40;;;;;;;8.10;4.20;;;;;;;9.59;74.48;98488.89;25157;1315;3071298;-75
2022/04/19 10:00:12;;;;;;;12.00;5.80;;;;;;;10.23;73.40;98484.59;25107;1313;3026628;-71
2022/04/19 10:08:21;;;;;;;10.60;5.50;;;;;;;10.26;71.91;98461.60;25106;1315;3059249;-74
2022/04/19 10:10:52;;;;;;;11.00;5.90;;;;;;;9.97;72.96;98461.81;25129;1313;3026603;-73
2022/04/19 10:13:24;;;;;;;11.70;6.10;;;;;;;9.63;74.59;98473.76;25186;1313;3026913;-71
2022/04/19 10:16:14;;;;;;;11.10;5.70;;;;;;;9.39;75.43;98464.80;25128;1313;3051536;-72
2022/04/19 10:18:44;;;;;;;13.30;7.50;;;;;;;9.46;75.48;98449.14;25171;1313;3028128;-73
2022/04/19 10:21:34;;;;;;;14.20;7.00;;;;;;;9.28;76.23;98440.10;25153;1313;3049381;-73
2022/04/19 10:24:13;;;;;;;15.60;7.00;;;;;;;9.58;76.07;98436.20;25128;1315;3027463;-71
2022/04/19 10:26:51;;;;;;;12.20;6.80;;;;;;;9.85;74.37;98435.73;25137;1313;3051895;-75
2022/04/19 10:29:30;;;;;;;14.30;7.10;;;;;;;9.92;74.07;98448.02;25165;1312;3059171;-73
2022/04/19 10:32:01;;;;;;;12.70;7.30;;;;;;;9.82;74.27;98471.11;25246;1313;3049456;-74
2022/04/19 10:34:35;;;;;;;11.90;7.20;;;;;;;9.82;74.18;98476.73;25133;1313;3026571;-75
2022/04/19 10:37:21;;;;;;;11.20;7.40;;;;;;;9.74;74.19;98480.48;25158;1313;3051069;-75
2022/04/19 10:39:52;;;;;;;20.50;9.40;;;;;;;9.47;74.67;98494.86;25187;1313;3068163;-71
2022/04/19 10:42:34;;;;;;;13.20;6.90;;;;;;;9.30;75.63;98492.73;25289;1313;3026216;-71
2022/04/19 10:45:25;;;;;;;13.80;7.60;;;;;;;9.95;74.27;98494.71;25148;1313;3055236;-73
2022/04/19 10:47:55;;;;;;;17.00;10.00;;;;;;;10.34;72.97;98497.27;25233;1313;3026825;-73
2022/04/19 10:50:39;;;;;;;15.40;8.20;;;;;;;10.17;72.83;98508.29;25774;1313;3028867;-73
2022/04/19 10:53:12;;;;;;;13.30;8.40;;;;;;;10.13;72.95;98504.58;25907;1313;3050889;-76
2022/04/19 10:56:05;;;;;;;15.70;7.50;;;;;;;10.01;73.15;98506.98;25942;1313;3026200;-75
2022/04/19 10:58:42;;;;;;;13.60;7.40;;;;;;;9.72;74.09;98525.57;25260;1316;3054366;-75
2022/04/19 11:01:27;;;;;;;15.00;7.70;;;;;;;9.72;74.16;98523.27;25258;1313;3069076;-74
2022/04/19 11:03:58;;;;;;;11.90;5.60;;;;;;;9.57;75.35;98527.69;25173;1313;3048645;-76
2022/04/19 11:06:30;;;;;;;10.70;6.00;;;;;;;9.93;75.07;98529.27;25153;1315;3026486;-76
2022/04/19 11:09:14;;;;;;;12.60;6.50;;;;;;;10.80;72.21;98508.66;25165;1316;3027626;-74
2022/04/19 11:11:44;;;;;;;13.60;7.20;;;;;;;10.47;71.83;98525.36;25205;1313;3059294;-75
2022/04/19 11:14:34;;;;;;;15.10;7.70;;;;;;;9.63;74.31;98541.73;25158;1316;3028755;-75
2022/04/19 11:17:20;;;;;;;21.60;9.90;;;;;;;9.41;75.84;98530.88;25156;1313;3056062;-75
2022/04/19 11:20:04;;;;;;;18.70;10.20;;;;;;;9.66;74.14;98520.02;25155;1313;3051908;-75
2022/04/19 11:22:46;;;;;;;16.90;10.60;;;;;;;9.51;74.33;98517.05;25131;1316;3071081;-75
2022/04/19 11:25:15;;;;;;;20.00;9.80;;;;;;;9.44;74.69;98521.06;25172;1316;3051994;-74
2022/04/19 11:27:54;;;;;;;29.10;13.60;;;;;;;9.84;73.98;98529.76;25137;1312;3053226;-73
2022/04/19 11:30:24;;;;;;;33.80;17.30;;;;;;;10.59;71.83;98510.64;25201;1312;3055115;-74
2022/04/19 11:32:55;;;;;;;37.80;19.90;;;;;;;10.25;71.68;98497.04;25200;1313;3026747;-74
2022/04/19 11:35:24;;;;;;;48.60;22.80;;;;;;;10.07;72.21;98515.83;25120;1313;3028290;-72
2022/04/19 11:37:54;;;;;;;52.50;25.20;;;;;;;9.75;73.02;98530.05;25190;1313;3026459;-75
2022/04/19 11:48:51;;;;;;;91.40;36.70;;;;;;;9.49;75.37;98561.09;25155;1313;3054899;-74
2022/04/19 11:51:23;;;;;;;83.90;37.30;;;;;;;10.36;72.33;98537.88;25166;1313;3026861;-75
2022/04/19 11:53:52;;;;;;;107.20;44.90;;;;;;;10.23;71.42;98513.13;25115;1313;3026535;-75
2022/04/19 11:56:22;;;;;;;114.70;50.70;;;;;;;9.66;73.10;98518.97;25159;1313;3054156;-75
2022/04/19 11:58:52;;;;;;;122.00;53.30;;;;;;;9.76;72.64;98523.83;25183;1313;3027655;-75
2022/04/19 12:01:21;;;;;;;138.70;58.20;;;;;;;9.49;72.45;98532.11;25219;1313;3048504;-74
2022/04/19 12:04:11;;;;;;;147.20;61.10;;;;;;;9.09;74.25;98532.92;25091;1313;3056678;-74
2022/04/19 12:07:07;;;;;;;95.90;38.20;;;;;;;9.06;74.90;98527.23;25156;1315;3026580;-74
2022/04/19 12:09:57;;;;;;;94.30;39.70;;;;;;;9.72;73.43;98522.25;25120;1313;3056530;-75
2022/04/19 12:12:29;;;;;;;67.20;34.60;;;;;;;9.95;72.75;98521.77;25135;1315;3052633;-74
2022/04/19 12:15:07;;;;;;;77.30;36.30;;;;;;;9.95;71.85;98519.31;25178;1312;3055874;-73
2022/04/19 12:17:45;;;;;;;65.60;31.00;;;;;;;9.75;72.27;98514.70;25185;1312;3053634;-74
2022/04/19 12:20:14;;;;;;;62.00;30.50;;;;;;;9.40;73.07;98504.75;25121;1316;3029758;-75
2022/04/19 12:22:54;;;;;;;54.60;26.10;;;;;;;9.28;73.14;98507.34;25118;1313;3054191;-75
2022/04/19 12:25:23;;;;;;;55.90;28.60;;;;;;;8.87;74.71;98506.15;25158;1313;3026636;-75
2022/04/19 12:27:54;;;;;;;50.20;22.70;;;;;;;8.46;76.58;98515.22;25171;1313;3069050;-75
2022/04/19 12:30:28;;;;;;;35.90;16.50;;;;;;;9.30;75.10;98529.05;25111;1315;3027195;-75
2022/04/19 12:33:02;;;;;;;31.70;16.90;;;;;;;9.90;72.08;98540.74;25179;1313;3050617;-75